Flight Track Log - Related Links

Times and Time Zones

All times are in EDT time to prevent confusion due to time zone crossing. See the SKW5516 flight status page for this flight to view local times or setup timezone preferences in your user account.


Time Position Orientation Groundspeed Altitude Reporting Facility
EDT Latitude Longitude Course Direction KTS MPH feet Rate Location/Type
Wed 03:35:00 PM 39.7835 -105.2466 260° West  Level Estimated
Wed 03:36:00 PM 39.7635 -105.3897 260° West  Level Estimated
Wed 03:37:00 PM 39.7434 -105.5328 260° West  Level Estimated
Wed 03:38:00 PM 39.7230 -105.6757 260° West  Level Estimated
Wed 03:39:00 PM 39.7025 -105.8186 259° West  Level Estimated
Wed 03:40:00 PM 39.6818 -105.9614 259° West  Level Estimated
Wed 03:41:00 PM 39.6609 -106.1041 259° West  Level Estimated
Wed 03:42:00 PM 39.6399 -106.2468 259° West  Level Estimated
Wed 03:43:00 PM 39.6187 -106.3893 259° West  Level Estimated
Wed 03:44:00 PM 39.5973 -106.5318 259° West  Level Estimated
Wed 03:45:00 PM 39.5758 -106.6741 259° West  Level Estimated
Wed 03:46:00 PM 39.5540 -106.8164 259° West  Level Estimated
Wed 03:47:00 PM 39.5321 -106.9586 259° West  Level Estimated
Wed 03:48:00 PM 39.5101 -107.1007 259° West  Level Estimated
Wed 03:49:00 PM 39.4878 -107.2427 259° West  Level Estimated
Wed 03:50:00 PM 39.4654 -107.3846 258° West  Level Estimated
Wed 03:51:00 PM 39.4428 -107.5265 258° West  Level Estimated
Wed 03:52:00 PM 39.4200 -107.6682 258° West  Level Estimated
Wed 03:53:00 PM 39.3971 -107.8098 258° West  Level Estimated
Wed 03:54:00 PM 39.3740 -107.9514 258° West  Level Estimated
Wed 03:55:00 PM 39.3507 -108.0928 258° West  Level Estimated
Wed 03:56:00 PM 39.3272 -108.2342 258° West  Level Estimated
Wed 03:57:00 PM 39.3036 -108.3755 258° West  Level Estimated
Wed 03:58:00 PM 39.2798 -108.5166 258° West  Level Estimated
Wed 03:59:00 PM 39.2558 -108.6577 258° West  Level Estimated
Wed 04:00:00 PM 39.2317 -108.7987 258° West  Level Estimated
Wed 04:01:00 PM 39.2074 -108.9395 257° West  Level Estimated
Wed 04:02:00 PM 39.1829 -109.0803 257° West  Level Estimated
Wed 04:03:00 PM 39.1583 -109.2210 257° West  Level Estimated
Wed 04:04:00 PM 39.1335 -109.3616 257° West  Level Estimated
Wed 04:05:00 PM 39.1085 -109.5021 257° West  Level Estimated
Wed 04:06:00 PM 39.0833 -109.6424 257° West  Level Estimated
Wed 04:07:00 PM 39.0580 -109.7827 257° West  Level Estimated
Wed 04:08:00 PM 39.0325 -109.9229 257° West  Level Estimated
Wed 04:09:00 PM 39.0069 -110.0630 257° West  Level Estimated
Wed 04:10:00 PM 38.9811 -110.2030 257° West  Level Estimated
Wed 04:11:00 PM 38.9551 -110.3428 257° West  Level Estimated
Wed 04:12:00 PM 38.9289 -110.4826 257° West  Level Estimated
Wed 04:13:00 PM 38.9026 -110.6223 256° West  Level Estimated
Wed 04:14:00 PM 38.8761 -110.7618 256° West  Level Estimated
Wed 04:15:00 PM 38.8494 -110.9013 256° West  Level Estimated
Wed 04:16:00 PM 38.8226 -111.0407 256° West  Level Estimated
Wed 04:17:00 PM 38.7956 -111.1799 256° West  Level Estimated
Wed 04:18:00 PM 38.7685 -111.3191 256° West  Level Estimated
Wed 04:19:00 PM 38.7412 -111.4581 256° West  Level Estimated
Wed 04:20:00 PM 38.7137 -111.5970 256° West  Level Estimated
Wed 04:21:00 PM 38.6861 -111.7359 256° West  Level Estimated
Wed 04:22:00 PM 38.6582 -111.8746 256° West  Level Estimated
Wed 04:23:00 PM 38.6303 -112.0132 256° West  Level Estimated
Wed 04:24:00 PM 38.6021 -112.1517 255° West  Level Estimated
Wed 04:25:00 PM 38.5738 -112.2901 255° West  Level Estimated
Wed 04:26:00 PM 38.5454 -112.4284 255° West  Level Estimated
Wed 04:27:00 PM 38.5168 -112.5665 255° West  Level Estimated
Wed 04:28:00 PM 38.4880 -112.7046 255° West  Level Estimated
Wed 04:29:00 PM 38.4590 -112.8426 255° West  Level Estimated
Wed 04:30:00 PM 38.4299 -112.9804 255° West  Level Estimated
Wed 04:31:00 PM 38.4006 -113.1181 255° West  Level Estimated
Wed 04:32:00 PM 38.3712 -113.2557 255° West  Level Estimated
Wed 04:33:00 PM 38.3416 -113.3932 255° West  Level Estimated
Wed 04:34:00 PM 38.3119 -113.5306 255° West  Level Estimated
Wed 04:35:00 PM 38.2820 -113.6679 255° West  Level Estimated
Wed 04:36:00 PM 38.2519 -113.8051 254° West  Level Estimated
Wed 04:37:00 PM 38.2216 -113.9421 254° West  Level Estimated
Wed 04:38:00 PM 38.1913 -114.0791 254° West  Level Estimated
Wed 04:39:00 PM 38.1607 -114.2159 254° West  Level Estimated
Wed 04:40:00 PM 38.1300 -114.3526 254° West  Level Estimated
Wed 04:41:00 PM 38.0991 -114.4892 254° West  Level Estimated
Wed 04:42:00 PM 38.0681 -114.6257 254° West  Level Estimated
Wed 04:43:00 PM 38.0369 -114.7620 254° West  Level Estimated
Wed 04:44:00 PM 38.0056 -114.8983 254° West  Level Estimated
Wed 04:45:00 PM 37.9741 -115.0344 254° West  Level Estimated
Wed 04:46:00 PM 37.9424 -115.1704 254° West  Level Estimated
Wed 04:47:00 PM 37.9106 -115.3063 254° West  Level Estimated
Wed 04:48:00 PM 37.8787 -115.4421 253° West  Level Estimated
Wed 04:49:00 PM 37.8465 -115.5778 253° West  Level Estimated
Wed 04:50:00 PM 37.8143 -115.7133 253° West  Level Estimated
Wed 04:51:00 PM 37.7818 -115.8487 253° West  Level Estimated
Wed 04:52:00 PM 37.7492 -115.9840 253° West  Level Estimated
Wed 04:53:00 PM 37.7165 -116.1192 253° West  Level Estimated
Wed 04:54:00 PM 37.6836 -116.2543 253° West  Level Estimated
Wed 04:55:00 PM 37.6505 -116.3892 253° West  Level Estimated
Wed 04:56:00 PM 37.6173 -116.5240 253° West  Level Estimated
Wed 04:57:00 PM 37.5840 -116.6587 253° West  Level Estimated
Wed 04:58:00 PM 37.5505 -116.7933 253° West  Level Estimated
Wed 04:59:00 PM 37.5168 -116.9278 253° West  Level Estimated
Wed 05:00:00 PM 37.4830 -117.0621 252° West  Level Estimated
Wed 05:01:00 PM 37.4490 -117.1963 252° West  Level Estimated
Wed 05:02:00 PM 37.4149 -117.3304 252° West  Level Estimated
Wed 05:03:00 PM 37.3806 -117.4644 252° West  Level Estimated
Wed 05:04:00 PM 37.3462 -117.5983 252° West  Level Estimated
Wed 05:05:00 PM 37.3116 -117.7320 252° West  Level Estimated
Wed 05:06:00 PM 37.2769 -117.8656 252° West  Level Estimated
Wed 05:07:00 PM 37.2421 -117.9991 252° West  Level Estimated
Wed 05:08:00 PM 37.2070 -118.1324 252° West  Level Estimated
Wed 05:09:00 PM 37.1719 -118.2657 252° West  Level Estimated
Wed 05:10:00 PM 37.1365 -118.3988 252° West  Level Estimated
Wed 05:11:00 PM 37.1011 -118.5318 252° West  Level Estimated
Wed 05:12:00 PM 37.0654 -118.6646 251° West  Level Estimated
Wed 05:13:00 PM 37.0297 -118.7973 251° West  Level Estimated
Wed 05:14:00 PM 36.9938 -118.9299 251° West  Level Estimated
Wed 05:15:00 PM 36.9577 -119.0624 251° West  Level Estimated
Wed 05:16:00 PM 36.9215 -119.1948 251° West  Level Estimated
Wed 05:17:00 PM 36.8852 -119.3270 251° West  Level Estimated
Wed 05:18:00 PM 36.8487 -119.4591 251° West  Level Estimated
Wed 05:19:00 PM 36.8120 -119.5911 251° West  Level Estimated
Wed 05:20:00 PM 36.7764 -119.7187 251° West  Level Estimated
Wed 05:21:00 PM 36.7764 -119.7187 148° Southeast  Level Estimated
Wed 05:22:00 PM 36.7764 -119.7187 148° Southeast  Level Estimated
Wed 05:23:00 PM 36.7764 -119.7187 148° Southeast  Level Estimated
Wed 05:24:00 PM 36.7764 -119.7187 148° Southeast  Level Estimated
Wed 05:25:00 PM 36.7764 -119.7187 148° Southeast  Level Estimated

Login

Don't have an account? Register now (free) for customized features, flight alerts, and more!